This is the latest recevied weather packets stored in our database for station/object KC1TLF-15. If no packets are shown the sender has not sent any weather packets the latest 10 day(s).
| Time | Temp. | Humidity | Pressure | Rain* | Wind** | Luminosity | Snow |
|---|---|---|---|---|---|---|---|
| 1777217415 | 15° C | 40% | 1028.5 hPa | 0 mm | 2.68 m/s, 166° | 673 W/m² | - |
| 1777216814 | 14.44° C | 41% | 1028.5 hPa | 0 mm | 0.45 m/s, 22° | 578 W/m² | - |
| 1777216215 | 13.89° C | 41% | 1028.5 hPa | 0 mm | 0.45 m/s, 294° | 416 W/m² | - |
| 1777215613 | 13.33° C | 45% | 1028.5 hPa | 0 mm | 0.89 m/s, 38° | 373 W/m² | - |
| 1777215015 | 13.33° C | 44% | 1028.5 hPa | 0 mm | 0.45 m/s, 323° | 233 W/m² | - |
| 1777214414 | 12.78° C | 45% | 1028.8 hPa | 0 mm | 0.45 m/s, 8° | 433 W/m² | - |
| 1777213815 | 13.33° C | 49% | 1028.5 hPa | 0 mm | 0 m/s | 399 W/m² | - |
| 1777213214 | 13.33° C | 50% | 1028.5 hPa | 0 mm | 0 m/s | 398 W/m² | - |
| 1777212614 | 12.78° C | 49% | 1028.4 hPa | 0 mm | 1.34 m/s, 183° | 280 W/m² | - |
| 1777212015 | 12.22° C | 53% | 1028.6 hPa | 0 mm | 0.45 m/s, 352° | 294 W/m² | - |
| 1777211415 | 11.67° C | 56% | 1028.3 hPa | 0 mm | 0 m/s | 463 W/m² | - |
| 1777210816 | 10.56° C | 57% | 1028.3 hPa | 0 mm | 0 m/s | 323 W/m² | - |
| 1777210212 | 10.56° C | 58% | 1028.4 hPa | 0 mm | 0 m/s | 166 W/m² | - |
| 1777209614 | 10° C | 61% | 1028.3 hPa | 0 mm | 0 m/s | 168 W/m² | - |
| 1777209014 | 10° C | 59% | 1028 hPa | 0 mm | 0.45 m/s, 356° | 156 W/m² | - |
| 1777208414 | 10° C | 59% | 1028 hPa | 0 mm | 0.89 m/s, 56° | 159 W/m² | - |
| 1777207814 | 9.44° C | 61% | 1028 hPa | 0 mm | 0 m/s | 159 W/m² | - |
| 1777207215 | 8.89° C | 62% | 1028 hPa | 0 mm | 0 m/s | 141 W/m² | - |
| 1777206615 | 8.89° C | 64% | 1027.8 hPa | 0 mm | 0 m/s | 125 W/m² | - |
| 1777206014 | 8.89° C | 64% | 1027.6 hPa | 0 mm | 0.45 m/s, 355° | 133 W/m² | - |
| 1777205415 | 8.89° C | 65% | 1027.7 hPa | 0 mm | 0.89 m/s, 63° | 190 W/m² | - |
| 1777204815 | 8.33° C | 66% | 1027.7 hPa | 0 mm | 1.34 m/s, 40° | 271 W/m² | - |
| 1777204214 | 7.78° C | 70% | 1027.7 hPa | 0 mm | 0 m/s | 109 W/m² | - |
| 1777203614 | 7.22° C | 72% | 1027.5 hPa | 0 mm | 0 m/s | - | - |
| 1777203014 | 6.67° C | 74% | 1027.5 hPa | 0 mm | 0.45 m/s, 318° | - | - |
* Rain latest hour (hover to see other rain measurements)
** Current wind speed in m/s (hover to see current wind gust speed)